createdAt,value
2023-08-30T03:23:14.156Z,15.93
2023-08-30T03:26:17.546Z,16.22
2023-08-30T03:29:19.827Z,16.24
2023-08-30T03:32:23.112Z,16.32
2023-08-30T03:35:25.311Z,16.35
2023-08-30T03:38:27.750Z,16.22
2023-08-30T03:41:29.964Z,15.82
2023-08-30T03:44:32.776Z,15.93
2023-08-30T03:47:35.080Z,16.09
2023-08-30T03:50:37.565Z,16.02
2023-08-30T03:53:39.720Z,15.88
2023-08-30T03:56:42.175Z,16.09
2023-08-30T03:59:45.656Z,16.27
2023-08-30T04:02:49.428Z,16.36
2023-08-30T04:05:58.458Z,16.26
2023-08-30T04:09:00.694Z,16.17
2023-08-30T04:12:05.809Z,16.25
2023-08-30T04:15:09.038Z,16.34
2023-08-30T04:18:11.847Z,16.14
2023-08-30T04:21:14.472Z,16.18
2023-08-30T04:24:17.074Z,16.52
2023-08-30T04:27:19.215Z,16.79
2023-08-30T04:30:21.915Z,17.91
2023-08-30T04:33:25.105Z,17.95
2023-08-30T04:36:27.552Z,18.79
2023-08-30T04:39:29.798Z,19.40
2023-08-30T04:42:32.840Z,19.58
2023-08-30T04:45:37.937Z,19.87
2023-08-30T04:48:41.050Z,18.37
2023-08-30T04:51:44.944Z,17.86
2023-08-30T04:54:47.520Z,17.57
2023-08-30T04:57:49.819Z,17.51
2023-08-30T05:00:52.603Z,17.37
2023-08-30T05:03:54.877Z,17.59
2023-08-30T05:06:58.736Z,18.37
2023-08-30T05:10:00.949Z,18.89
2023-08-30T05:13:04.873Z,18.58
2023-08-30T05:16:07.632Z,18.49
2023-08-30T05:19:10.257Z,18.21
2023-08-30T05:22:12.537Z,18.21
2023-08-30T05:25:15.234Z,18.11
2023-08-30T05:28:17.468Z,18.10
2023-08-30T05:31:20.209Z,17.94
2023-08-30T05:34:28.276Z,18.06
2023-08-30T05:37:30.996Z,18.49
2023-08-30T05:40:33.353Z,18.55
2023-08-30T05:43:38.854Z,18.61
2023-08-30T05:46:41.631Z,18.67
2023-08-30T05:49:44.090Z,18.46
2023-08-30T05:52:46.365Z,18.48
2023-08-30T05:55:48.848Z,18.90
2023-08-30T05:58:51.076Z,19.28
2023-08-30T06:01:53.709Z,19.18
2023-08-30T06:04:56.406Z,19.32
2023-08-30T06:07:58.835Z,19.53
2023-08-30T06:11:01.407Z,19.55
2023-08-30T06:14:03.580Z,19.53
2023-08-30T06:17:06.169Z,19.81
2023-08-30T06:20:08.763Z,20.19
2023-08-30T06:23:11.340Z,20.51
2023-08-30T06:26:13.715Z,20.93
2023-08-30T06:29:16.194Z,20.86
2023-08-30T06:32:18.814Z,20.81
2023-08-30T06:35:21.581Z,20.76
2023-08-30T06:38:23.736Z,21.27
2023-08-30T06:41:26.622Z,21.19
2023-08-30T06:44:29.837Z,21.85
2023-08-30T06:47:32.637Z,21.80
2023-08-30T06:50:35.508Z,21.96
2023-08-30T06:53:37.957Z,21.96
2023-08-30T06:56:40.104Z,22.08
2023-08-30T06:59:42.607Z,21.83
2023-08-30T07:02:46.926Z,22.13
2023-08-30T07:05:52.371Z,22.54
2023-08-30T07:08:54.648Z,22.94
2023-08-30T07:11:57.487Z,22.96
2023-08-30T07:14:59.891Z,23.09
2023-08-30T07:18:02.652Z,22.72
2023-08-30T07:21:04.948Z,22.73
2023-08-30T07:24:08.287Z,22.56
2023-08-30T07:27:10.513Z,22.15
2023-08-30T07:30:13.440Z,22.18
2023-08-30T07:33:15.636Z,21.72
2023-08-30T07:36:18.296Z,22.00
2023-08-30T07:39:20.786Z,21.67
2023-08-30T07:42:23.447Z,20.84
2023-08-30T07:45:25.772Z,20.54
2023-08-30T07:48:28.266Z,20.81
2023-08-30T07:51:32.497Z,20.71
2023-08-30T07:54:34.962Z,21.13
2023-08-30T07:57:38.999Z,21.20
2023-08-30T08:00:41.479Z,21.12
2023-08-30T08:03:52.360Z,20.51
2023-08-30T08:07:03.602Z,20.21
2023-08-30T08:10:07.015Z,20.58
2023-08-30T08:13:09.676Z,20.20
2023-08-30T08:16:12.628Z,20.40
2023-08-30T08:19:14.986Z,20.61
2023-08-30T08:22:17.526Z,19.73
2023-08-30T08:25:19.861Z,20.47
2023-08-30T08:28:22.314Z,20.96
2023-08-30T08:31:24.867Z,21.07
2023-08-30T08:34:27.617Z,21.48
2023-08-30T08:37:30.068Z,21.62
2023-08-30T08:40:41.683Z,21.14
2023-08-30T08:43:45.838Z,21.10
2023-08-30T08:46:49.202Z,20.86
2023-08-30T08:49:52.288Z,20.11
2023-08-30T08:53:00.234Z,19.84
2023-08-30T08:56:03.248Z,20.76
2023-08-30T08:59:07.701Z,21.37
2023-08-30T09:02:13.065Z,21.19
2023-08-30T09:05:16.308Z,20.50
2023-08-30T09:08:18.610Z,20.75
2023-08-30T09:11:22.757Z,21.37
2023-08-30T09:14:28.036Z,21.53
2023-08-30T09:17:40.868Z,20.89
2023-08-30T09:20:43.261Z,20.97
2023-08-30T09:23:45.722Z,21.20
2023-08-30T09:26:55.642Z,21.35
2023-08-30T09:29:59.620Z,21.09
2023-08-30T09:33:04.069Z,21.39
2023-08-30T09:36:11.309Z,21.38
2023-08-30T09:39:15.628Z,20.44
2023-08-30T09:42:23.203Z,20.74
2023-08-30T09:45:27.826Z,21.25
2023-08-30T09:48:30.477Z,21.42
2023-08-30T09:51:34.418Z,21.82
2023-08-30T09:54:42.758Z,22.11
2023-08-30T09:57:45.958Z,22.15
2023-08-30T10:00:52.271Z,22.08
2023-08-30T10:03:57.527Z,22.01
2023-08-30T10:07:00.465Z,21.76
2023-08-30T10:10:10.011Z,21.87
2023-08-30T10:13:13.816Z,21.74
2023-08-30T10:16:21.540Z,21.63
2023-08-30T10:19:28.258Z,21.78
2023-08-30T10:22:31.585Z,22.14
2023-08-30T10:25:35.011Z,22.09
2023-08-30T10:28:39.611Z,22.32
2023-08-30T10:31:41.836Z,22.04
2023-08-30T10:34:50.345Z,22.16
2023-08-30T10:38:00.864Z,22.88
2023-08-30T10:41:09.768Z,22.99
2023-08-30T10:44:15.667Z,22.94
2023-08-30T10:47:21.573Z,22.08
2023-08-30T10:50:35.000Z,21.97
2023-08-30T10:53:37.483Z,22.19
2023-08-30T10:57:01.840Z,22.23
2023-08-30T11:00:19.919Z,22.02
2023-08-30T11:03:22.205Z,22.03
2023-08-30T11:06:24.775Z,22.23
2023-08-30T11:09:27.751Z,22.22
2023-08-30T11:12:31.605Z,23.38
2023-08-30T11:15:33.820Z,23.80
2023-08-30T11:18:43.991Z,22.05
2023-08-30T11:21:47.143Z,21.85
2023-08-30T11:24:50.443Z,22.19
2023-08-30T11:28:04.699Z,22.31
2023-08-30T11:31:07.177Z,22.83
2023-08-30T11:34:09.378Z,23.23
2023-08-30T11:37:13.221Z,23.32
2023-08-30T11:40:15.665Z,23.42
2023-08-30T11:43:18.588Z,24.63
2023-08-30T11:46:22.393Z,24.26
2023-08-30T11:49:24.996Z,23.79
2023-08-30T11:52:27.699Z,23.68
2023-08-30T11:55:30.450Z,22.40
2023-08-30T11:58:36.560Z,22.31
2023-08-30T12:01:39.151Z,22.20
2023-08-30T12:04:46.773Z,22.19
2023-08-30T12:07:49.170Z,21.90
2023-08-30T12:10:52.671Z,22.12
2023-08-30T12:14:03.084Z,22.63
2023-08-30T12:17:06.789Z,22.26
2023-08-30T12:20:19.174Z,22.75
2023-08-30T12:23:33.523Z,22.83
2023-08-30T12:26:35.817Z,22.73
2023-08-30T12:29:38.337Z,23.14
2023-08-30T12:32:40.521Z,23.52
2023-08-30T12:35:43.051Z,25.07
2023-08-30T12:38:45.183Z,25.32
2023-08-30T12:41:48.403Z,24.49
2023-08-30T12:44:50.833Z,24.74
2023-08-30T12:47:53.339Z,24.47
2023-08-30T12:50:55.615Z,24.39
2023-08-30T12:53:58.106Z,24.62
2023-08-30T12:57:00.257Z,24.69
2023-08-30T13:00:02.937Z,24.28
2023-08-30T13:03:05.336Z,24.22
2023-08-30T13:06:07.971Z,23.66
2023-08-30T13:09:10.680Z,23.07
2023-08-30T13:12:13.140Z,22.45
2023-08-30T13:15:15.467Z,22.01
2023-08-30T13:18:18.713Z,22.17
2023-08-30T13:21:27.476Z,21.98
2023-08-30T13:24:33.903Z,22.33
2023-08-30T13:27:36.164Z,22.00
2023-08-30T13:30:45.357Z,21.84
2023-08-30T13:33:47.688Z,21.99
2023-08-30T13:36:50.235Z,22.09
2023-08-30T13:39:54.661Z,22.73
2023-08-30T13:42:57.793Z,23.51
2023-08-30T13:46:01.047Z,23.40
2023-08-30T13:49:03.669Z,23.48
2023-08-30T13:52:06.253Z,22.75
2023-08-30T13:55:09.149Z,22.39
2023-08-30T13:58:11.279Z,21.94
2023-08-30T14:01:13.731Z,22.43
2023-08-30T14:04:16.156Z,22.43
2023-08-30T14:07:19.091Z,22.44
2023-08-30T14:10:25.606Z,21.99
2023-08-30T14:13:29.325Z,21.89
2023-08-30T14:16:31.824Z,22.01
2023-08-30T14:19:36.112Z,22.32
2023-08-30T14:22:39.195Z,22.33
2023-08-30T14:25:41.357Z,21.84
2023-08-30T14:28:43.847Z,21.82
2023-08-30T14:31:46.103Z,21.57
2023-08-30T14:34:48.708Z,21.53
2023-08-30T14:37:51.866Z,21.61
2023-08-30T14:40:57.674Z,21.29
2023-08-30T14:43:59.932Z,20.99
2023-08-30T14:47:02.504Z,20.87
2023-08-30T14:50:05.313Z,20.86
2023-08-30T14:53:08.085Z,21.16
2023-08-30T14:56:12.198Z,21.19
2023-08-30T14:59:14.674Z,21.27
2023-08-30T15:02:17.196Z,21.12
2023-08-30T15:05:20.156Z,21.07
